ADDS TAF Board (Experimental) INFO

IDs: Format: Expanded Condensed

Updated at: 1857 UTC 02 Sep 2014

KDTW - Detroit Metro/Wayne, MI, US

Issued at 1720 UTC 02 Sep 2014
Time1853Z02/19Z02/20Z02/21Z02/22Z02/23Z03/00Z03/01Z03/02Z03/03Z03/04Z03/05Z03/06Z03/07Z
TypeOBSPRVL
  [TEMP]  
PRVL
  [TEMP]  
PRVL
  [TEMP]  
PRVLPRVLPRVLPRVLPRVLPRVLPRVLPRVLPRVLPRVL
VIS9>6
  [3]  
>6
  [3]  
>6
  [3]  
>6>6>6>6>6>6>6>6>6>6
CIG7050
  [10]  
50
  [10]  
50
  [10]  
505050--------------
CoverOVCOVC
  [BKN]  
OVC
  [BKN]  
OVC
  [BKN]  
OVCOVCOVCSCTSCTSCTSCTSCTSCTSCT
FltCatVFRVFR
  [MVFR]  
VFR
  [MVFR]  
VFR
  [MVFR]  
VFRVFRVFRVFRVFRVFRVFRVFRVFRVFR
WX-RA--
  [-RA]  
--
  [-RA]  
--
  [-RA]  
--------------------
WDir210230
[230]
230
[230]
230
[230]
230230230220220220220220220220
WSpd710
  [10]  
10
  [10]  
10
  [10]  
1010105555555
WGst----
  [--]  
--
  [--]  
--
  [--]  
--------------------
R03/21
XWnd04444441111111
XGst--000--------------------
HWnd-7-9-9-9-9-9-9-5-5-5-5-5-5-5
HGst--000--------------------
R04/22
XWnd04444441111111
XGst--000--------------------
HWnd-7-9-9-9-9-9-9-5-5-5-5-5-5-5
HGst--000--------------------
R09/27
XWnd-6-6-6-6-6-6-6-4-4-4-4-4-4-4
XGst--000--------------------
HWnd-4-8-8-8-8-8-8-3-3-3-3-3-3-3
HGst--000--------------------
Raw TAF
KDTW 021720Z 0218/0324 23010KT P6SM BKN050 OVC080
  TEMPO 0218/0222 3SM -RA BKN010
  FM030100 22005KT P6SM SCT070
  FM031500 20008KT P6SM SKC


Raw METAR
KDTW 021853Z 21007KT 9SM -RA SCT008 BKN070 OVC110 22/20 A2988 RMK AO2 RAE07B43 SLP113 P0000 T02170200
KDTW 021753Z 20008KT 8SM -RA SCT008 BKN075 OVC100 22/20 A2988 RMK AO2 SLP114 P0025 60040 T02170200 10217 20206 51000

TAF Board Legend

Hazard VFR MVFR IFR LIFR
Visibility (sm) >5 3≤X≤5 1≤X<3 <1
Ceiling (100 ft) >30 10≤X≤30 5≤X<10 <5
Wind Speed (kt) <10 10≤X<20 20≤X<30 ≥30
Wind Gust (kt) <15 15≤X<25 25≤X<35 ≥35
Weather No Wx Reported VCTS,-TS,-FZRA TS,FZRA +TS,+FZRA


Page loaded:  18:57 UTC  |   11:57 AM Pacific  |   12:57 PM Mountain  |   01:57 PM Central  |   02:57 PM Eastern

 

ADVISORIES

FORECASTS

FORECASTS

OBSERVATIONS

USER TOOLS

ABOUT US